Bracebridge, Canada
Current Conditions -  °F | °C
As of 7:00 PM on Saturday 25 Oct 2014 (Local Time) from CYQA Reporting Station
Clear Clear  
Wind Chill: 11°   Ceiling: Unl
Heat Index: 11°   Visibility: 9mi
Dew Point:   Wind: 10mph
Humidity: 71%   Direction: 270°W
Pressure: 29.55"   Gusts: 20mph
Location:  45.05°N, 79.32°W
Report Text: CYQA 252300Z AUTO 27009G17KT 9SM CLR 11/06 A2955 RMK SLP012 DENSITY ALT 1000FT
Loading
Personal Weather Stations






























Interactive Weather Map
Tropical Storm Tracking
New forecast layout! Learn more

10-Day Weather Forecast

Advertisements
Track Severe Weather on mobile